createdAt,value
2018-10-09T00:01:34.547Z,21.00
2018-10-09T00:04:15.639Z,22.98
2018-10-09T00:06:56.365Z,22.45
2018-10-09T00:09:37.170Z,22.05
2018-10-09T00:12:18.556Z,22.05
2018-10-09T00:14:59.705Z,22.45
2018-10-09T00:17:40.508Z,21.73
2018-10-09T00:20:25.929Z,21.90
2018-10-09T00:23:07.528Z,21.77
2018-10-09T00:25:48.605Z,22.05
2018-10-09T00:28:29.465Z,21.42
2018-10-09T00:31:10.725Z,22.10
2018-10-09T00:33:51.876Z,22.80
2018-10-09T00:36:33.506Z,23.05
2018-10-09T00:39:14.719Z,24.00
2018-10-09T00:41:55.862Z,22.42
2018-10-09T00:44:37.290Z,24.77
2018-10-09T00:47:18.461Z,23.92
2018-10-09T00:50:00.005Z,23.07
2018-10-09T00:52:41.106Z,22.42
2018-10-09T00:55:21.979Z,23.62
2018-10-09T00:58:04.313Z,23.05
2018-10-09T01:00:45.505Z,24.07
2018-10-09T01:03:26.531Z,23.32
2018-10-09T01:06:07.642Z,24.05
2018-10-09T01:08:48.974Z,23.90
2018-10-09T01:11:30.141Z,23.73
2018-10-09T01:14:11.348Z,25.23
2018-10-09T01:16:52.682Z,24.05
2018-10-09T01:19:34.405Z,24.18
2018-10-09T01:22:15.770Z,23.73
2018-10-09T01:24:56.911Z,25.32
2018-10-09T01:27:38.297Z,24.60
2018-10-09T01:30:19.464Z,23.73
2018-10-09T01:33:00.967Z,21.20
2018-10-09T01:35:41.868Z,22.02
2018-10-09T01:38:22.658Z,21.33
2018-10-09T01:41:03.635Z,21.20
2018-10-09T01:43:44.507Z,19.98
2018-10-09T01:46:25.935Z,21.33
2018-10-09T01:49:07.917Z,22.32
2018-10-09T01:51:49.360Z,21.95
2018-10-09T01:54:30.494Z,21.30
2018-10-09T01:57:11.403Z,21.70
2018-10-09T01:59:52.698Z,22.48
2018-10-09T02:02:34.477Z,21.62
2018-10-09T02:05:15.607Z,21.15
2018-10-09T02:07:56.830Z,21.17
2018-10-09T02:10:37.705Z,20.75
2018-10-09T02:13:18.483Z,22.87
2018-10-09T02:15:59.295Z,23.65
2018-10-09T02:18:40.343Z,22.25
2018-10-09T02:21:21.248Z,21.65
2018-10-09T02:24:03.083Z,22.42
2018-10-09T02:26:45.795Z,22.45
2018-10-09T02:29:27.997Z,21.68
2018-10-09T02:32:09.371Z,21.40
2018-10-09T02:34:50.593Z,20.60
2018-10-09T02:37:31.733Z,22.05
2018-10-09T02:40:13.421Z,23.95
2018-10-09T02:42:54.255Z,23.20
2018-10-09T02:45:35.177Z,21.97
2018-10-09T02:48:16.088Z,22.37
2018-10-09T02:50:57.938Z,22.15
2018-10-09T02:53:40.795Z,23.18
2018-10-09T02:56:21.710Z,23.75
2018-10-09T02:59:02.942Z,22.13
2018-10-09T03:01:44.152Z,22.87
2018-10-09T03:04:25.533Z,23.27
2018-10-09T03:07:06.420Z,23.50
2018-10-09T03:09:47.218Z,23.77
2018-10-09T03:12:28.779Z,24.05
2018-10-09T03:15:09.854Z,24.67
2018-10-09T03:17:50.750Z,30.50
2018-10-09T03:20:31.889Z,28.73
2018-10-09T03:23:13.184Z,27.40
2018-10-09T03:25:58.238Z,28.40
2018-10-09T03:28:39.745Z,27.93
2018-10-09T03:31:21.117Z,27.42
2018-10-09T03:34:02.335Z,28.70
2018-10-09T03:36:43.499Z,29.15
2018-10-09T03:39:24.656Z,26.75
2018-10-09T03:42:06.275Z,27.93
2018-10-09T03:44:47.435Z,27.22
2018-10-09T03:47:28.616Z,28.42
2018-10-09T03:50:09.731Z,26.73
2018-10-09T03:52:51.246Z,26.75
2018-10-09T03:55:32.065Z,26.23
2018-10-09T03:58:14.538Z,27.52
2018-10-09T04:00:55.719Z,26.17
2018-10-09T04:03:36.898Z,27.90
2018-10-09T04:06:17.664Z,26.10
2018-10-09T04:08:58.909Z,27.75
2018-10-09T04:11:40.155Z,26.15
2018-10-09T04:14:21.304Z,29.60
2018-10-09T04:17:02.500Z,29.32
2018-10-09T04:19:43.665Z,29.02
2018-10-09T04:22:24.815Z,28.12
2018-10-09T04:25:06.568Z,28.80
2018-10-09T04:27:48.134Z,29.42
2018-10-09T04:30:29.456Z,27.30
2018-10-09T04:33:11.067Z,27.10
2018-10-09T04:35:52.127Z,27.17
2018-10-09T04:38:33.288Z,26.30
2018-10-09T04:41:13.963Z,26.75
2018-10-09T04:43:54.841Z,26.45
2018-10-09T04:46:35.578Z,27.07
2018-10-09T04:49:16.557Z,27.40
2018-10-09T04:51:58.223Z,27.42
2018-10-09T04:54:39.241Z,27.42
2018-10-09T04:57:20.376Z,26.97
2018-10-09T05:00:01.128Z,26.60
2018-10-09T05:02:42.004Z,27.22
2018-10-09T05:05:22.765Z,26.85
2018-10-09T05:08:04.804Z,26.05
2018-10-09T05:10:45.779Z,27.52
2018-10-09T05:13:26.566Z,27.15
2018-10-09T05:16:07.478Z,27.02
2018-10-09T05:18:48.660Z,28.07
2018-10-09T05:21:29.403Z,28.80
2018-10-09T05:24:11.436Z,28.45
2018-10-09T05:26:52.664Z,27.80
2018-10-09T05:29:33.556Z,27.27
2018-10-09T05:32:14.648Z,27.35
2018-10-09T05:34:55.384Z,26.02
2018-10-09T05:37:36.203Z,27.60
2018-10-09T05:40:17.154Z,28.65
2018-10-09T05:42:58.202Z,29.00
2018-10-09T05:45:39.488Z,29.10
2018-10-09T05:48:20.356Z,26.93
2018-10-09T05:51:01.587Z,26.20
2018-10-09T05:53:42.757Z,25.77
2018-10-09T05:56:23.788Z,25.85
2018-10-09T05:59:04.987Z,25.12
2018-10-09T06:01:48.794Z,26.62
2018-10-09T06:04:29.601Z,25.70
2018-10-09T06:07:11.131Z,25.05
2018-10-09T06:09:52.734Z,24.98
2018-10-09T06:12:34.231Z,25.62
2018-10-09T06:15:15.524Z,24.98
2018-10-09T06:17:57.297Z,24.37
2018-10-09T06:20:38.536Z,24.47
2018-10-09T06:23:19.951Z,25.02
2018-10-09T06:26:01.323Z,24.20
2018-10-09T06:28:42.087Z,24.63
2018-10-09T06:31:23.496Z,26.62
2018-10-09T06:34:05.799Z,22.95
2018-10-09T06:36:46.790Z,24.15
2018-10-09T06:39:27.522Z,23.47
2018-10-09T06:42:08.323Z,24.50
2018-10-09T06:44:50.481Z,24.60
2018-10-09T06:47:31.932Z,24.37
2018-10-09T06:50:13.225Z,24.72
2018-10-09T06:52:54.383Z,24.47
2018-10-09T06:55:35.087Z,24.27
2018-10-09T06:58:15.644Z,25.17
2018-10-09T07:00:56.489Z,23.33
2018-10-09T07:03:38.548Z,24.23
2018-10-09T07:06:19.415Z,24.00
2018-10-09T07:09:00.375Z,22.93
2018-10-09T07:11:40.903Z,22.43
2018-10-09T07:14:22.391Z,22.47
2018-10-09T07:19:47.328Z,21.57
2018-10-09T07:22:28.291Z,22.37
2018-10-09T07:25:09.177Z,22.97
2018-10-09T07:27:49.808Z,22.27
2018-10-09T07:30:30.916Z,20.37
2018-10-09T07:33:12.136Z,21.30
2018-10-09T07:35:52.627Z,21.33
2018-10-09T07:38:33.128Z,20.73
2018-10-09T07:41:13.692Z,19.90
2018-10-09T07:43:54.509Z,20.43
2018-10-09T07:46:35.608Z,20.33
2018-10-09T07:49:16.231Z,21.17
2018-10-09T07:51:57.001Z,21.53
2018-10-09T07:54:37.738Z,21.30
2018-10-09T07:57:18.478Z,21.17
2018-10-09T07:59:59.405Z,20.83
2018-10-09T08:02:40.575Z,20.83
2018-10-09T08:05:21.415Z,19.70
2018-10-09T08:08:02.288Z,20.10
2018-10-09T08:10:43.423Z,19.87
2018-10-09T08:13:24.824Z,20.00
2018-10-09T08:16:05.825Z,21.37
2018-10-09T08:18:47.111Z,21.00
2018-10-09T08:21:28.217Z,20.17
2018-10-09T08:24:09.125Z,21.57
2018-10-09T08:26:50.227Z,20.07
2018-10-09T08:29:31.351Z,21.23
2018-10-09T08:32:12.477Z,21.23
2018-10-09T08:34:54.939Z,20.03
2018-10-09T08:37:38.736Z,20.80
2018-10-09T08:40:20.421Z,18.43
2018-10-09T08:43:01.880Z,20.73
2018-10-09T08:45:42.543Z,19.23
2018-10-09T08:48:23.296Z,18.00
2018-10-09T08:51:03.800Z,17.80
2018-10-09T08:53:44.433Z,19.00
2018-10-09T08:56:24.959Z,19.43
2018-10-09T08:59:05.679Z,19.30
2018-10-09T09:01:47.013Z,18.77
2018-10-09T09:04:27.850Z,19.97
2018-10-09T09:07:08.616Z,19.07
2018-10-09T09:09:49.369Z,19.30
2018-10-09T09:12:30.690Z,19.30
2018-10-09T09:15:11.592Z,19.10
2018-10-09T09:17:52.502Z,19.87
2018-10-09T09:20:33.182Z,18.60
2018-10-09T09:23:14.302Z,20.77
2018-10-09T09:25:54.978Z,21.50
2018-10-09T09:28:35.567Z,20.67
2018-10-09T09:31:16.552Z,21.03
2018-10-09T09:33:56.976Z,21.43
2018-10-09T09:36:37.815Z,21.13
2018-10-09T09:39:18.379Z,19.83
2018-10-09T09:41:59.216Z,20.83
2018-10-09T09:44:40.677Z,21.53
2018-10-09T09:47:21.263Z,18.80
2018-10-09T09:50:03.607Z,19.70
2018-10-09T09:52:44.362Z,22.93
2018-10-09T09:55:24.968Z,21.07
2018-10-09T09:58:06.241Z,21.70
2018-10-09T10:00:56.038Z,20.30
2018-10-09T10:03:37.740Z,21.97
2018-10-09T10:06:19.318Z,21.30
2018-10-09T10:09:00.351Z,20.43
2018-10-09T10:11:40.990Z,20.43
2018-10-09T10:14:21.527Z,20.90
2018-10-09T10:17:02.904Z,21.70
2018-10-09T10:19:44.005Z,21.13
2018-10-09T10:22:24.815Z,19.20
2018-10-09T10:25:05.860Z,20.10
2018-10-09T10:27:46.994Z,20.20
2018-10-09T10:30:28.419Z,19.93
2018-10-09T10:33:09.999Z,18.73
2018-10-09T10:35:51.257Z,19.90
2018-10-09T10:38:32.343Z,19.90
2018-10-09T10:41:13.275Z,18.87
2018-10-09T10:43:55.316Z,19.83
2018-10-09T10:46:38.558Z,18.43
2018-10-09T10:49:19.112Z,17.77
2018-10-09T10:52:00.274Z,19.33
2018-10-09T10:54:41.353Z,19.10
2018-10-09T10:57:22.139Z,20.07
2018-10-09T11:00:03.809Z,16.97
2018-10-09T11:02:44.235Z,19.63
2018-10-09T11:05:25.258Z,17.93
2018-10-09T11:08:06.870Z,16.70
2018-10-09T11:10:48.294Z,18.73
2018-10-09T11:13:29.393Z,18.67
2018-10-09T11:16:10.428Z,18.50
2018-10-09T11:18:51.235Z,17.30
2018-10-09T11:21:32.502Z,17.60
2018-10-09T11:24:12.996Z,17.33
2018-10-09T11:26:53.866Z,17.90
2018-10-09T11:29:34.239Z,19.30
2018-10-09T11:32:15.587Z,17.77
2018-10-09T11:34:56.141Z,17.50
2018-10-09T11:37:37.572Z,18.43
2018-10-09T11:40:19.748Z,17.67
2018-10-09T11:43:00.781Z,17.43
2018-10-09T11:45:42.104Z,18.47
2018-10-09T11:48:23.496Z,17.27
2018-10-09T11:51:04.754Z,17.47
2018-10-09T11:53:46.187Z,17.57
2018-10-09T11:56:26.692Z,18.27
2018-10-09T11:59:07.648Z,17.97
2018-10-09T12:01:48.351Z,18.30
2018-10-09T12:04:29.013Z,17.97
2018-10-09T12:07:10.310Z,16.20
2018-10-09T12:09:50.923Z,17.20
2018-10-09T12:12:32.662Z,17.07
2018-10-09T12:15:13.333Z,16.60
2018-10-09T12:17:54.208Z,14.67
2018-10-09T12:20:35.159Z,17.70
2018-10-09T12:23:17.057Z,17.37
2018-10-09T12:25:57.642Z,16.17
2018-10-09T12:28:38.123Z,15.93
2018-10-09T12:31:18.881Z,17.57
2018-10-09T12:33:59.765Z,16.33
2018-10-09T12:36:40.227Z,17.33
2018-10-09T12:39:20.786Z,17.83
2018-10-09T12:42:01.282Z,16.13
2018-10-09T12:44:41.753Z,16.13
2018-10-09T12:47:22.795Z,15.70
2018-10-09T12:50:04.108Z,16.17
2018-10-09T12:52:44.928Z,15.00
2018-10-09T12:55:26.325Z,15.57
2018-10-09T12:58:07.535Z,14.30
2018-10-09T13:00:48.003Z,16.60
2018-10-09T13:03:29.184Z,15.30
2018-10-09T13:06:10.223Z,14.83
2018-10-09T13:08:51.243Z,16.13
2018-10-09T13:11:32.502Z,15.40
2018-10-09T13:14:13.278Z,16.43
2018-10-09T13:16:54.407Z,15.40
2018-10-09T13:19:35.319Z,14.73
2018-10-09T13:22:16.411Z,13.00
2018-10-09T13:24:57.389Z,15.53
2018-10-09T13:27:39.015Z,14.57
2018-10-09T13:30:19.694Z,14.37
2018-10-09T13:33:00.122Z,13.77
2018-10-09T13:35:40.716Z,13.70
2018-10-09T13:38:21.275Z,15.53
2018-10-09T13:41:02.660Z,14.67
2018-10-09T13:43:43.551Z,13.80
2018-10-09T13:46:24.775Z,11.73
2018-10-09T13:49:06.498Z,11.23
2018-10-09T13:51:47.094Z,13.20
2018-10-09T13:54:27.561Z,12.33
2018-10-09T13:57:08.654Z,11.50
2018-10-09T13:59:49.263Z,11.63
2018-10-09T14:02:30.182Z,11.87
2018-10-09T14:05:10.861Z,12.57
2018-10-09T14:07:51.751Z,12.30
2018-10-09T14:10:32.687Z,11.53
2018-10-09T14:13:13.876Z,11.30
2018-10-09T14:15:54.486Z,11.70
2018-10-09T14:18:35.536Z,11.40
2018-10-09T14:21:16.764Z,10.73
2018-10-09T14:23:58.014Z,11.00
2018-10-09T14:26:39.513Z,12.20
2018-10-09T14:29:20.095Z,13.07
2018-10-09T14:32:01.142Z,12.13
2018-10-09T14:34:42.140Z,12.73
2018-10-09T14:37:23.379Z,12.33
2018-10-09T14:40:04.353Z,12.10
2018-10-09T14:42:45.164Z,11.43
2018-10-09T14:45:25.858Z,11.13
2018-10-09T14:48:06.627Z,10.60
2018-10-09T14:50:47.227Z,11.43
2018-10-09T14:53:27.919Z,11.80
2018-10-09T14:56:09.203Z,11.20
2018-10-09T14:58:50.481Z,11.73
2018-10-09T15:01:31.284Z,11.17
2018-10-09T15:04:12.518Z,12.57
2018-10-09T15:06:53.411Z,10.47
2018-10-09T15:09:34.434Z,11.33
2018-10-09T15:12:15.821Z,12.93
2018-10-09T15:14:56.639Z,12.40
2018-10-09T15:17:37.453Z,14.13
2018-10-09T15:20:18.057Z,12.87
2018-10-09T15:22:58.906Z,12.00
2018-10-09T15:25:39.806Z,21.20
2018-10-09T15:28:20.326Z,29.07
2018-10-09T15:31:01.459Z,19.60
2018-10-09T15:33:42.092Z,19.70
2018-10-09T15:36:22.571Z,12.73
2018-10-09T15:39:03.756Z,11.90
2018-10-09T15:41:45.259Z,11.67
2018-10-09T15:44:26.182Z,11.63
2018-10-09T15:47:07.455Z,12.97
2018-10-09T15:49:48.298Z,12.57
2018-10-09T15:52:28.805Z,13.20
2018-10-09T15:55:09.784Z,14.70
2018-10-09T15:57:50.358Z,13.23
2018-10-09T16:00:38.043Z,14.37
2018-10-09T16:03:19.186Z,13.43
2018-10-09T16:05:59.656Z,14.27
2018-10-09T16:08:40.428Z,13.57
2018-10-09T16:11:26.500Z,14.10
2018-10-09T16:14:07.747Z,14.00
2018-10-09T16:16:48.708Z,14.30
2018-10-09T16:19:29.359Z,14.97
2018-10-09T16:22:10.823Z,14.57
2018-10-09T16:24:51.787Z,14.67
2018-10-09T16:27:32.867Z,15.30
2018-10-09T16:30:13.944Z,13.97
2018-10-09T16:32:56.252Z,15.03
2018-10-09T16:35:37.995Z,14.70
2018-10-09T16:38:18.987Z,15.80
2018-10-09T16:40:59.953Z,16.53
2018-10-09T16:43:41.228Z,17.13
2018-10-09T16:46:22.494Z,16.80
2018-10-09T16:49:03.063Z,17.50
2018-10-09T16:51:44.714Z,17.17
2018-10-09T16:54:25.851Z,17.17
2018-10-09T16:57:07.392Z,17.70
2018-10-09T16:59:48.659Z,19.03
2018-10-09T17:02:29.857Z,17.63
2018-10-09T17:05:10.660Z,20.03
2018-10-09T17:07:51.759Z,18.30
2018-10-09T17:10:32.239Z,19.73
2018-10-09T17:13:13.095Z,19.37
2018-10-09T17:15:53.939Z,20.27
2018-10-09T17:18:34.654Z,21.57
2018-10-09T17:21:15.497Z,21.37
2018-10-09T17:23:56.454Z,22.70
2018-10-09T17:26:37.375Z,24.83
2018-10-09T17:29:18.423Z,23.73
2018-10-09T17:31:59.150Z,20.60
2018-10-09T17:34:39.618Z,21.50
2018-10-09T17:37:21.071Z,22.73
2018-10-09T17:40:02.242Z,22.53
2018-10-09T17:42:43.489Z,23.83
2018-10-09T17:45:24.479Z,22.53
2018-10-09T17:48:05.375Z,22.43
2018-10-09T17:50:46.245Z,24.37
2018-10-09T17:53:27.604Z,23.63
2018-10-09T17:56:08.465Z,20.73
2018-10-09T17:58:49.274Z,23.60
2018-10-09T18:01:30.192Z,21.27
2018-10-09T18:04:10.622Z,21.63
2018-10-09T18:06:52.287Z,21.20
2018-10-09T18:09:32.795Z,21.37
2018-10-09T18:12:13.996Z,20.73
2018-10-09T18:14:54.629Z,21.20
2018-10-09T18:17:35.547Z,21.67
2018-10-09T18:20:16.719Z,22.60
2018-10-09T18:22:58.294Z,22.30
2018-10-09T18:25:38.856Z,22.93
2018-10-09T18:28:19.833Z,22.23
2018-10-09T18:31:00.723Z,23.17
2018-10-09T18:33:41.508Z,24.23
2018-10-09T18:36:22.229Z,25.50
2018-10-09T18:39:02.996Z,25.03
2018-10-09T18:41:44.899Z,26.50
2018-10-09T18:44:26.865Z,25.23
2018-10-09T18:47:11.987Z,26.20
2018-10-09T18:49:52.616Z,26.37
2018-10-09T18:52:34.084Z,25.73
2018-10-09T18:55:16.326Z,26.70
2018-10-09T18:57:57.323Z,26.00
2018-10-09T19:00:37.858Z,27.87
2018-10-09T19:03:18.807Z,28.00
2018-10-09T19:05:59.883Z,27.33
2018-10-09T19:08:40.400Z,28.50
2018-10-09T19:11:24.932Z,27.60
2018-10-09T19:14:06.089Z,29.60
2018-10-09T19:16:46.925Z,29.03
2018-10-09T19:19:27.472Z,27.53
2018-10-09T19:22:08.324Z,28.05
2018-10-09T19:24:49.119Z,28.23
2018-10-09T19:27:29.762Z,28.10
2018-10-09T19:30:10.554Z,27.43
2018-10-09T19:32:54.546Z,27.33
2018-10-09T19:35:35.679Z,26.13
2018-10-09T19:38:16.666Z,28.30
2018-10-09T19:40:57.074Z,27.93
2018-10-09T19:43:38.556Z,27.53
2018-10-09T19:46:19.122Z,25.57
2018-10-09T19:49:00.241Z,28.50
2018-10-09T19:51:40.741Z,27.70
2018-10-09T19:54:21.697Z,27.83
2018-10-09T19:57:02.410Z,25.73
2018-10-09T19:59:43.062Z,26.67
2018-10-09T20:02:23.815Z,28.77
2018-10-09T20:05:05.243Z,27.13
2018-10-09T20:07:47.188Z,27.80
2018-10-09T20:10:28.177Z,26.73
2018-10-09T20:13:09.426Z,26.20
2018-10-09T20:15:50.399Z,26.60
2018-10-09T20:18:31.665Z,26.57
2018-10-09T20:21:12.587Z,27.07
2018-10-09T20:23:53.491Z,26.80
2018-10-09T20:26:34.360Z,25.60
2018-10-09T20:29:14.731Z,27.07
2018-10-09T20:31:55.418Z,26.47
2018-10-09T20:34:37.311Z,26.57
2018-10-09T20:37:18.424Z,27.00
2018-10-09T20:39:59.140Z,25.70
2018-10-09T20:42:39.944Z,25.53
2018-10-09T20:45:20.815Z,25.43
2018-10-09T20:48:02.162Z,26.57
2018-10-09T20:50:43.036Z,25.60
2018-10-09T20:53:23.602Z,26.30
2018-10-09T20:56:04.490Z,25.87
2018-10-09T20:58:45.021Z,26.83
2018-10-09T21:01:25.553Z,25.50
2018-10-09T21:04:06.577Z,26.07
2018-10-09T21:06:47.712Z,26.37
2018-10-09T21:09:28.276Z,26.37
2018-10-09T21:12:09.224Z,25.43
2018-10-09T21:14:50.183Z,26.62
2018-10-09T21:17:31.347Z,27.00
2018-10-09T21:20:12.486Z,27.03
2018-10-09T21:22:53.706Z,26.80
2018-10-09T21:25:34.824Z,27.90
2018-10-09T21:28:15.927Z,28.73
2018-10-09T21:30:56.762Z,28.75
2018-10-09T21:33:37.570Z,28.83
2018-10-09T21:36:18.464Z,28.40
2018-10-09T21:38:59.292Z,27.60
2018-10-09T21:41:40.191Z,26.23
2018-10-09T21:44:21.381Z,27.37
2018-10-09T21:47:03.358Z,28.65
2018-10-09T21:49:44.172Z,27.93
2018-10-09T21:52:25.467Z,27.65
2018-10-09T21:55:06.432Z,26.20
2018-10-09T21:57:47.312Z,27.22
2018-10-09T22:00:28.671Z,25.97
2018-10-09T22:03:09.534Z,26.27
2018-10-09T22:05:50.441Z,26.93
2018-10-09T22:08:31.621Z,27.20
2018-10-09T22:11:14.173Z,26.07
2018-10-09T22:13:54.834Z,26.53
2018-10-09T22:16:35.706Z,25.70
2018-10-09T22:19:16.071Z,25.63
2018-10-09T22:21:56.761Z,26.70
2018-10-09T22:24:38.201Z,25.02
2018-10-09T22:27:19.261Z,27.02
2018-10-09T22:30:00.198Z,27.48
2018-10-09T22:32:41.105Z,27.35
2018-10-09T22:35:22.361Z,24.47
2018-10-09T22:38:03.302Z,24.43
2018-10-09T22:40:44.730Z,25.53
2018-10-09T22:43:26.020Z,24.98
2018-10-09T22:46:07.187Z,25.75
2018-10-09T22:48:48.976Z,25.00
2018-10-09T22:51:30.687Z,26.48
2018-10-09T22:54:13.761Z,26.42
2018-10-09T22:56:54.849Z,24.50
2018-10-09T22:59:36.044Z,23.90
2018-10-09T23:02:17.060Z,24.10
2018-10-09T23:04:57.811Z,23.65
2018-10-09T23:07:40.154Z,23.42
2018-10-09T23:10:21.374Z,22.35
2018-10-09T23:13:02.391Z,22.25
2018-10-09T23:15:43.931Z,21.50
2018-10-09T23:18:25.647Z,23.50
2018-10-09T23:21:07.231Z,22.37
2018-10-09T23:23:47.993Z,22.17
2018-10-09T23:26:29.316Z,23.50
2018-10-09T23:29:10.119Z,22.57
2018-10-09T23:31:50.962Z,22.95
2018-10-09T23:34:31.972Z,22.17
2018-10-09T23:37:13.341Z,23.52
2018-10-09T23:39:54.097Z,22.95
2018-10-09T23:42:35.246Z,23.02
2018-10-09T23:45:16.413Z,22.93
2018-10-09T23:48:04.914Z,21.70
2018-10-09T23:50:46.214Z,23.80
2018-10-09T23:53:26.815Z,23.35
2018-10-09T23:56:07.564Z,24.18
2018-10-09T23:58:48.739Z,22.67
